Terminal Aerodrome Forecast
Issued by NWS Jacksonville, FL

Current Version | Previous Version | Text Only | Print | Product List | Glossary On
Versions: 1 2 3 4 5 6 7 8 9 10 11 12 13 14 15 16 17 18
000
FTUS42 KJAX 281721
TAFJAX
TAF
KJAX 281721Z 2818/2918 10012KT P6SM SCT040 BKN250
     FM290200 09003KT P6SM SCT250
     FM291500 08008KT P6SM SCT030 SCT250=

USA.gov is the U.S. government's official web portal to all federal, state and local government web resources and services.